<?xml version="1.0" encoding="UTF-8" standalone="no" ?>
<gpx xmlns="http://www.topografix.com/GPX/1/1" xmlns:xsi="http://www.w3.org/2001/XMLSchema-instance" xsi:schemaLocation="http://www.topografix.com/GPX/1/1 http://www.topografix.com/GPX/1/1/gpx.xsd" version="1.1" creator="VisuGPX - https://www.visugpx.com">
  <metadata>
    <name>29-11 Montbrun - Bellefont - Charasson</name>
  </metadata>
  <trk>
    <name><![CDATA[29-11 Montbrun - Bellefont - Charasson_4]]></name>
    <extensions>
      <line xmlns="http://www.topografix.com/GPX/gpx_style/0/2">
        <color>ff8000</color>
        <width>4</width>
        <dasharray>8</dasharray>
      </line>
    </extensions>
    <trkseg>
      <trkpt lat="45.3357" lon="5.877">
        <ele>1841.542725</ele>
        <time>2009-10-29T11:22:32Z</time>
      </trkpt>
      <trkpt lat="45.33585" lon="5.87711">
        <ele>1844.426514</ele>
        <time>2009-10-29T11:22:52Z</time>
      </trkpt>
      <trkpt lat="45.33595" lon="5.87711">
        <ele>1846.349365</ele>
        <time>2009-10-29T11:23:11Z</time>
      </trkpt>
      <trkpt lat="45.3361" lon="5.87729">
        <ele>1851.155762</ele>
        <time>2009-10-29T11:23:43Z</time>
      </trkpt>
      <trkpt lat="45.33612" lon="5.87738">
        <ele>1852.117188</ele>
        <time>2009-10-29T11:23:49Z</time>
      </trkpt>
      <trkpt lat="45.33626" lon="5.8775">
        <ele>1852.5979</ele>
        <time>2009-10-29T11:24:27Z</time>
      </trkpt>
      <trkpt lat="45.33628" lon="5.87782">
        <ele>1855.001221</ele>
        <time>2009-10-29T11:24:51Z</time>
      </trkpt>
      <trkpt lat="45.33656" lon="5.87808">
        <ele>1861.249756</ele>
        <time>2009-10-29T11:26:11Z</time>
      </trkpt>
      <trkpt lat="45.33666" lon="5.8787">
        <ele>1866.056152</ele>
        <time>2009-10-29T11:27:33Z</time>
      </trkpt>
      <trkpt lat="45.33679" lon="5.879">
        <ele>1868.94043</ele>
        <time>2009-10-29T11:28:24Z</time>
      </trkpt>
      <trkpt lat="45.33688" lon="5.87906">
        <ele>1867.498047</ele>
        <time>2009-10-29T11:29:16Z</time>
      </trkpt>
      <trkpt lat="45.3374" lon="5.87883">
        <ele>1854.040039</ele>
        <time>2009-10-29T11:30:19Z</time>
      </trkpt>
      <trkpt lat="45.33764" lon="5.87888">
        <ele>1853.559326</ele>
        <time>2009-10-29T11:30:37Z</time>
      </trkpt>
      <trkpt lat="45.33814" lon="5.87934">
        <ele>1849.713867</ele>
        <time>2009-10-29T11:31:40Z</time>
      </trkpt>
      <trkpt lat="45.33817" lon="5.87964">
        <ele>1855.962402</ele>
        <time>2009-10-29T11:32:03Z</time>
      </trkpt>
      <trkpt lat="45.33827" lon="5.87977">
        <ele>1857.404541</ele>
        <time>2009-10-29T11:32:18Z</time>
      </trkpt>
      <trkpt lat="45.33847" lon="5.87974">
        <ele>1851.155762</ele>
        <time>2009-10-29T11:32:38Z</time>
      </trkpt>
      <trkpt lat="45.33858" lon="5.87983">
        <ele>1855.481934</ele>
        <time>2009-10-29T11:32:51Z</time>
      </trkpt>
      <trkpt lat="45.33879" lon="5.87976">
        <ele>1847.79126</ele>
        <time>2009-10-29T11:33:17Z</time>
      </trkpt>
      <trkpt lat="45.33882" lon="5.87982">
        <ele>1847.79126</ele>
        <time>2009-10-29T11:33:23Z</time>
      </trkpt>
      <trkpt lat="45.33894" lon="5.87986">
        <ele>1841.542725</ele>
        <time>2009-10-29T11:33:49Z</time>
      </trkpt>
      <trkpt lat="45.33897" lon="5.8798">
        <ele>1837.69751</ele>
        <time>2009-10-29T11:33:55Z</time>
      </trkpt>
      <trkpt lat="45.33922" lon="5.87993">
        <ele>1837.69751</ele>
        <time>2009-10-29T11:34:18Z</time>
      </trkpt>
      <trkpt lat="45.33936" lon="5.88012">
        <ele>1840.581299</ele>
        <time>2009-10-29T11:34:31Z</time>
      </trkpt>
      <trkpt lat="45.33945" lon="5.8801">
        <ele>1835.774658</ele>
        <time>2009-10-29T11:34:40Z</time>
      </trkpt>
      <trkpt lat="45.33958" lon="5.8803">
        <ele>1836.255615</ele>
        <time>2009-10-29T11:34:58Z</time>
      </trkpt>
      <trkpt lat="45.33962" lon="5.88059">
        <ele>1838.178223</ele>
        <time>2009-10-29T11:35:44Z</time>
      </trkpt>
      <trkpt lat="45.33959" lon="5.8807">
        <ele>1837.69751</ele>
        <time>2009-10-29T11:36:21Z</time>
      </trkpt>
      <trkpt lat="45.33954" lon="5.88073">
        <ele>1832.890625</ele>
        <time>2009-10-29T11:36:38Z</time>
      </trkpt>
      <trkpt lat="45.33964" lon="5.88069">
        <ele>1835.293945</ele>
        <time>2009-10-29T11:37:32Z</time>
      </trkpt>
      <trkpt lat="45.33966" lon="5.88062">
        <ele>1840.581299</ele>
        <time>2009-10-29T11:37:45Z</time>
      </trkpt>
      <trkpt lat="45.33977" lon="5.88081">
        <ele>1844.426514</ele>
        <time>2009-10-29T11:38:06Z</time>
      </trkpt>
      <trkpt lat="45.33981" lon="5.88105">
        <ele>1842.984619</ele>
        <time>2009-10-29T11:38:30Z</time>
      </trkpt>
      <trkpt lat="45.33991" lon="5.88122">
        <ele>1847.79126</ele>
        <time>2009-10-29T11:38:47Z</time>
      </trkpt>
      <trkpt lat="45.34025" lon="5.88117">
        <ele>1844.907227</ele>
        <time>2009-10-29T11:39:27Z</time>
      </trkpt>
      <trkpt lat="45.34041" lon="5.88129">
        <ele>1846.829834</ele>
        <time>2009-10-29T11:39:41Z</time>
      </trkpt>
      <trkpt lat="45.34047" lon="5.88124">
        <ele>1844.907227</ele>
        <time>2009-10-29T11:39:47Z</time>
      </trkpt>
      <trkpt lat="45.34053" lon="5.88129">
        <ele>1845.387939</ele>
        <time>2009-10-29T11:39:53Z</time>
      </trkpt>
      <trkpt lat="45.34058" lon="5.88121">
        <ele>1843.946045</ele>
        <time>2009-10-29T11:40:08Z</time>
      </trkpt>
      <trkpt lat="45.34083" lon="5.88119">
        <ele>1836.736084</ele>
        <time>2009-10-29T11:40:41Z</time>
      </trkpt>
      <trkpt lat="45.34093" lon="5.88127">
        <ele>1835.293945</ele>
        <time>2009-10-29T11:40:50Z</time>
      </trkpt>
      <trkpt lat="45.34102" lon="5.88153">
        <ele>1840.10083</ele>
        <time>2009-10-29T11:41:11Z</time>
      </trkpt>
      <trkpt lat="45.34117" lon="5.88169">
        <ele>1843.946045</ele>
        <time>2009-10-29T11:41:37Z</time>
      </trkpt>
      <trkpt lat="45.34124" lon="5.88186">
        <ele>1847.310547</ele>
        <time>2009-10-29T11:41:48Z</time>
      </trkpt>
      <trkpt lat="45.34131" lon="5.88191">
        <ele>1845.387939</ele>
        <time>2009-10-29T11:42:01Z</time>
      </trkpt>
      <trkpt lat="45.34125" lon="5.88218">
        <ele>1847.79126</ele>
        <time>2009-10-29T11:43:12Z</time>
      </trkpt>
      <trkpt lat="45.34128" lon="5.88208">
        <ele>1840.10083</ele>
        <time>2009-10-29T11:44:11Z</time>
      </trkpt>
      <trkpt lat="45.34113" lon="5.88194">
        <ele>1843.946045</ele>
        <time>2009-10-29T11:44:38Z</time>
      </trkpt>
      <trkpt lat="45.3412" lon="5.8821">
        <ele>1835.774658</ele>
        <time>2009-10-29T11:45:31Z</time>
      </trkpt>
      <trkpt lat="45.34124" lon="5.88211">
        <ele>1838.658936</ele>
        <time>2009-10-29T11:45:54Z</time>
      </trkpt>
      <trkpt lat="45.34122" lon="5.88213">
        <ele>1837.69751</ele>
        <time>2009-10-29T11:46:13Z</time>
      </trkpt>
      <trkpt lat="45.34127" lon="5.88211">
        <ele>1830.968262</ele>
        <time>2009-10-29T11:46:38Z</time>
      </trkpt>
      <trkpt lat="45.34126" lon="5.88203">
        <ele>1832.890625</ele>
        <time>2009-10-29T11:46:43Z</time>
      </trkpt>
      <trkpt lat="45.34131" lon="5.88201">
        <ele>1828.564941</ele>
        <time>2009-10-29T11:47:02Z</time>
      </trkpt>
      <trkpt lat="45.34126" lon="5.88194">
        <ele>1848.271729</ele>
        <time>2009-10-29T11:47:19Z</time>
      </trkpt>
      <trkpt lat="45.34129" lon="5.88196">
        <ele>1848.752441</ele>
        <time>2009-10-29T11:47:29Z</time>
      </trkpt>
      <trkpt lat="45.34137" lon="5.88181">
        <ele>1849.233154</ele>
        <time>2009-10-29T11:50:26Z</time>
      </trkpt>
      <trkpt lat="45.34135" lon="5.88176">
        <ele>1853.559326</ele>
        <time>2009-10-29T11:50:40Z</time>
      </trkpt>
      <trkpt lat="45.34138" lon="5.88178">
        <ele>1855.962402</ele>
        <time>2009-10-29T11:50:46Z</time>
      </trkpt>
      <trkpt lat="45.34135" lon="5.88165">
        <ele>1858.846436</ele>
        <time>2009-10-29T11:51:21Z</time>
      </trkpt>
      <trkpt lat="45.34141" lon="5.88162">
        <ele>1866.536865</ele>
        <time>2009-10-29T11:52:00Z</time>
      </trkpt>
      <trkpt lat="45.34143" lon="5.88168">
        <ele>1867.97876</ele>
        <time>2009-10-29T11:52:07Z</time>
      </trkpt>
      <trkpt lat="45.34147" lon="5.88163">
        <ele>1866.056152</ele>
        <time>2009-10-29T11:52:29Z</time>
      </trkpt>
      <trkpt lat="45.34156" lon="5.88169">
        <ele>1869.421143</ele>
        <time>2009-10-29T11:52:47Z</time>
      </trkpt>
      <trkpt lat="45.34164" lon="5.88164">
        <ele>1862.210938</ele>
        <time>2009-10-29T11:53:03Z</time>
      </trkpt>
      <trkpt lat="45.34174" lon="5.88178">
        <ele>1867.498047</ele>
        <time>2009-10-29T11:53:14Z</time>
      </trkpt>
      <trkpt lat="45.34184" lon="5.8818">
        <ele>1865.575684</ele>
        <time>2009-10-29T11:53:28Z</time>
      </trkpt>
      <trkpt lat="45.3419" lon="5.88188">
        <ele>1866.536865</ele>
        <time>2009-10-29T11:53:48Z</time>
      </trkpt>
      <trkpt lat="45.34169" lon="5.88177">
        <ele>1866.056152</ele>
        <time>2009-10-29T11:54:40Z</time>
      </trkpt>
      <trkpt lat="45.3417" lon="5.88187">
        <ele>1855.001221</ele>
        <time>2009-10-29T11:55:00Z</time>
      </trkpt>
      <trkpt lat="45.34142" lon="5.88155">
        <ele>1864.133545</ele>
        <time>2009-10-29T11:55:32Z</time>
      </trkpt>
      <trkpt lat="45.34142" lon="5.8815">
        <ele>1866.536865</ele>
        <time>2009-10-29T11:55:37Z</time>
      </trkpt>
      <trkpt lat="45.34139" lon="5.88154">
        <ele>1867.97876</ele>
        <time>2009-10-29T11:55:51Z</time>
      </trkpt>
      <trkpt lat="45.34148" lon="5.88162">
        <ele>1879.033936</ele>
        <time>2009-10-29T11:56:15Z</time>
      </trkpt>
      <trkpt lat="45.3414" lon="5.88159">
        <ele>1880.956787</ele>
        <time>2009-10-29T11:56:50Z</time>
      </trkpt>
      <trkpt lat="45.34146" lon="5.88163">
        <ele>1887.205322</ele>
        <time>2009-10-29T11:57:10Z</time>
      </trkpt>
      <trkpt lat="45.34152" lon="5.88149">
        <ele>1885.282715</ele>
        <time>2009-10-29T11:58:29Z</time>
      </trkpt>
      <trkpt lat="45.34153" lon="5.88157">
        <ele>1893.453857</ele>
        <time>2009-10-29T11:58:52Z</time>
      </trkpt>
      <trkpt lat="45.3415" lon="5.88153">
        <ele>1905.950928</ele>
        <time>2009-10-29T11:59:12Z</time>
      </trkpt>
      <trkpt lat="45.34155" lon="5.88149">
        <ele>1904.509033</ele>
        <time>2009-10-29T11:59:26Z</time>
      </trkpt>
      <trkpt lat="45.34168" lon="5.88157">
        <ele>1901.625244</ele>
        <time>2009-10-29T11:59:57Z</time>
      </trkpt>
      <trkpt lat="45.34169" lon="5.88163">
        <ele>1906.912354</ele>
        <time>2009-10-29T12:00:07Z</time>
      </trkpt>
      <trkpt lat="45.34166" lon="5.88159">
        <ele>1904.028564</ele>
        <time>2009-10-29T12:00:18Z</time>
      </trkpt>
      <trkpt lat="45.34171" lon="5.88155">
        <ele>1906.912354</ele>
        <time>2009-10-29T12:00:36Z</time>
      </trkpt>
      <trkpt lat="45.34175" lon="5.88139">
        <ele>1895.376465</ele>
        <time>2009-10-29T12:01:41Z</time>
      </trkpt>
      <trkpt lat="45.34188" lon="5.88137">
        <ele>1893.93457</ele>
        <time>2009-10-29T12:01:58Z</time>
      </trkpt>
      <trkpt lat="45.34195" lon="5.88142">
        <ele>1896.818359</ele>
        <time>2009-10-29T12:02:08Z</time>
      </trkpt>
      <trkpt lat="45.34195" lon="5.88138">
        <ele>1898.260254</ele>
        <time>2009-10-29T12:02:16Z</time>
      </trkpt>
      <trkpt lat="45.3421" lon="5.8815">
        <ele>1907.393066</ele>
        <time>2009-10-29T12:02:27Z</time>
      </trkpt>
      <trkpt lat="45.34214" lon="5.88144">
        <ele>1904.028564</ele>
        <time>2009-10-29T12:02:32Z</time>
      </trkpt>
      <trkpt lat="45.34235" lon="5.88146">
        <ele>1897.779785</ele>
        <time>2009-10-29T12:02:59Z</time>
      </trkpt>
      <trkpt lat="45.34243" lon="5.88132">
        <ele>1875.188721</ele>
        <time>2009-10-29T12:03:18Z</time>
      </trkpt>
      <trkpt lat="45.34257" lon="5.88146">
        <ele>1881.917969</ele>
        <time>2009-10-29T12:03:27Z</time>
      </trkpt>
      <trkpt lat="45.34271" lon="5.88139">
        <ele>1882.398682</ele>
        <time>2009-10-29T12:03:43Z</time>
      </trkpt>
      <trkpt lat="45.34273" lon="5.88146">
        <ele>1879.514648</ele>
        <time>2009-10-29T12:03:54Z</time>
      </trkpt>
      <trkpt lat="45.34285" lon="5.88145">
        <ele>1874.708252</ele>
        <time>2009-10-29T12:04:07Z</time>
      </trkpt>
      <trkpt lat="45.34317" lon="5.88167">
        <ele>1877.592041</ele>
        <time>2009-10-29T12:04:52Z</time>
      </trkpt>
      <trkpt lat="45.34339" lon="5.88198">
        <ele>1889.608643</ele>
        <time>2009-10-29T12:05:28Z</time>
      </trkpt>
      <trkpt lat="45.34352" lon="5.88205">
        <ele>1894.895752</ele>
        <time>2009-10-29T12:05:54Z</time>
      </trkpt>
      <trkpt lat="45.34358" lon="5.88201">
        <ele>1893.453857</ele>
        <time>2009-10-29T12:06:05Z</time>
      </trkpt>
      <trkpt lat="45.34373" lon="5.88211">
        <ele>1897.299072</ele>
        <time>2009-10-29T12:06:29Z</time>
      </trkpt>
      <trkpt lat="45.34388" lon="5.88236">
        <ele>1904.509033</ele>
        <time>2009-10-29T12:06:55Z</time>
      </trkpt>
      <trkpt lat="45.34409" lon="5.88253">
        <ele>1907.393066</ele>
        <time>2009-10-29T12:07:22Z</time>
      </trkpt>
      <trkpt lat="45.34413" lon="5.88262">
        <ele>1910.276855</ele>
        <time>2009-10-29T12:07:32Z</time>
      </trkpt>
      <trkpt lat="45.34417" lon="5.8826">
        <ele>1911.238281</ele>
        <time>2009-10-29T12:07:38Z</time>
      </trkpt>
      <trkpt lat="45.34431" lon="5.88282">
        <ele>1912.199463</ele>
        <time>2009-10-29T12:08:00Z</time>
      </trkpt>
      <trkpt lat="45.34438" lon="5.88278">
        <ele>1910.276855</ele>
        <time>2009-10-29T12:08:11Z</time>
      </trkpt>
      <trkpt lat="45.34459" lon="5.88288">
        <ele>1913.160889</ele>
        <time>2009-10-29T12:08:42Z</time>
      </trkpt>
      <trkpt lat="45.34456" lon="5.88287">
        <ele>1911.718994</ele>
        <time>2009-10-29T12:08:50Z</time>
      </trkpt>
      <trkpt lat="45.34466" lon="5.88293">
        <ele>1911.238281</ele>
        <time>2009-10-29T12:09:12Z</time>
      </trkpt>
      <trkpt lat="45.34473" lon="5.88288">
        <ele>1906.431641</ele>
        <time>2009-10-29T12:09:34Z</time>
      </trkpt>
      <trkpt lat="45.34475" lon="5.88292">
        <ele>1907.393066</ele>
        <time>2009-10-29T12:09:40Z</time>
      </trkpt>
      <trkpt lat="45.34499" lon="5.88283">
        <ele>1906.431641</ele>
        <time>2009-10-29T12:10:24Z</time>
      </trkpt>
      <trkpt lat="45.34523" lon="5.88298">
        <ele>1900.663818</ele>
        <time>2009-10-29T12:11:08Z</time>
      </trkpt>
      <trkpt lat="45.3453" lon="5.88308">
        <ele>1901.144531</ele>
        <time>2009-10-29T12:11:24Z</time>
      </trkpt>
      <trkpt lat="45.34535" lon="5.88307">
        <ele>1902.105713</ele>
        <time>2009-10-29T12:12:16Z</time>
      </trkpt>
      <trkpt lat="45.34539" lon="5.88315">
        <ele>1896.818359</ele>
        <time>2009-10-29T12:12:32Z</time>
      </trkpt>
      <trkpt lat="45.34536" lon="5.88318">
        <ele>1892.973145</ele>
        <time>2009-10-29T12:12:37Z</time>
      </trkpt>
      <trkpt lat="45.3455" lon="5.88328">
        <ele>1889.12793</ele>
        <time>2009-10-29T12:13:04Z</time>
      </trkpt>
      <trkpt lat="45.34551" lon="5.88334">
        <ele>1891.53125</ele>
        <time>2009-10-29T12:13:11Z</time>
      </trkpt>
      <trkpt lat="45.34572" lon="5.88345">
        <ele>1888.647461</ele>
        <time>2009-10-29T12:13:57Z</time>
      </trkpt>
      <trkpt lat="45.34567" lon="5.88339">
        <ele>1887.686035</ele>
        <time>2009-10-29T12:14:34Z</time>
      </trkpt>
      <trkpt lat="45.34574" lon="5.88338">
        <ele>1889.12793</ele>
        <time>2009-10-29T12:14:52Z</time>
      </trkpt>
      <trkpt lat="45.34568" lon="5.88337">
        <ele>1886.724609</ele>
        <time>2009-10-29T12:14:58Z</time>
      </trkpt>
      <trkpt lat="45.34568" lon="5.88313">
        <ele>1874.227539</ele>
        <time>2009-10-29T12:15:59Z</time>
      </trkpt>
      <trkpt lat="45.34566" lon="5.88315">
        <ele>1871.824219</ele>
        <time>2009-10-29T12:16:13Z</time>
      </trkpt>
      <trkpt lat="45.3458" lon="5.88319">
        <ele>1878.553467</ele>
        <time>2009-10-29T12:16:38Z</time>
      </trkpt>
      <trkpt lat="45.34576" lon="5.88333">
        <ele>1872.785645</ele>
        <time>2009-10-29T12:16:46Z</time>
      </trkpt>
      <trkpt lat="45.34578" lon="5.88344">
        <ele>1864.614258</ele>
        <time>2009-10-29T12:16:57Z</time>
      </trkpt>
      <trkpt lat="45.34597" lon="5.88338">
        <ele>1867.498047</ele>
        <time>2009-10-29T12:17:17Z</time>
      </trkpt>
      <trkpt lat="45.3459" lon="5.88338">
        <ele>1868.459717</ele>
        <time>2009-10-29T12:17:30Z</time>
      </trkpt>
      <trkpt lat="45.34578" lon="5.88348">
        <ele>1868.459717</ele>
        <time>2009-10-29T12:18:04Z</time>
      </trkpt>
      <trkpt lat="45.34587" lon="5.88369">
        <ele>1873.746826</ele>
        <time>2009-10-29T12:18:39Z</time>
      </trkpt>
      <trkpt lat="45.34586" lon="5.88365">
        <ele>1872.785645</ele>
        <time>2009-10-29T12:19:00Z</time>
      </trkpt>
      <trkpt lat="45.34586" lon="5.88372">
        <ele>1877.111572</ele>
        <time>2009-10-29T12:20:08Z</time>
      </trkpt>
      <trkpt lat="45.34586" lon="5.88366">
        <ele>1872.785645</ele>
        <time>2009-10-29T12:20:32Z</time>
      </trkpt>
      <trkpt lat="45.34578" lon="5.88393">
        <ele>1862.210938</ele>
        <time>2009-10-29T12:46:20Z</time>
      </trkpt>
      <trkpt lat="45.34583" lon="5.88405">
        <ele>1864.614258</ele>
        <time>2009-10-29T12:46:48Z</time>
      </trkpt>
      <trkpt lat="45.3458" lon="5.88407">
        <ele>1866.056152</ele>
        <time>2009-10-29T12:47:00Z</time>
      </trkpt>
      <trkpt lat="45.34583" lon="5.8841">
        <ele>1864.614258</ele>
        <time>2009-10-29T12:47:13Z</time>
      </trkpt>
      <trkpt lat="45.34582" lon="5.88405">
        <ele>1859.807617</ele>
        <time>2009-10-29T12:47:57Z</time>
      </trkpt>
      <trkpt lat="45.34616" lon="5.88413">
        <ele>1844.907227</ele>
        <time>2009-10-29T12:49:19Z</time>
      </trkpt>
      <trkpt lat="45.34617" lon="5.88409">
        <ele>1842.023438</ele>
        <time>2009-10-29T12:49:43Z</time>
      </trkpt>
      <trkpt lat="45.34614" lon="5.88409">
        <ele>1841.062012</ele>
        <time>2009-10-29T12:49:50Z</time>
      </trkpt>
      <trkpt lat="45.34618" lon="5.88375">
        <ele>1830.487549</ele>
        <time>2009-10-29T12:50:23Z</time>
      </trkpt>
      <trkpt lat="45.34625" lon="5.88364">
        <ele>1827.603516</ele>
        <time>2009-10-29T12:50:37Z</time>
      </trkpt>
      <trkpt lat="45.34614" lon="5.88318">
        <ele>1820.393799</ele>
        <time>2009-10-29T12:51:37Z</time>
      </trkpt>
      <trkpt lat="45.34629" lon="5.88302">
        <ele>1814.14502</ele>
        <time>2009-10-29T12:51:55Z</time>
      </trkpt>
      <trkpt lat="45.34628" lon="5.88284">
        <ele>1798.763916</ele>
        <time>2009-10-29T12:52:29Z</time>
      </trkpt>
      <trkpt lat="45.34619" lon="5.88274">
        <ele>1792.515625</ele>
        <time>2009-10-29T12:52:35Z</time>
      </trkpt>
      <trkpt lat="45.34639" lon="5.88258">
        <ele>1789.150879</ele>
        <time>2009-10-29T12:52:59Z</time>
      </trkpt>
      <trkpt lat="45.34641" lon="5.88249">
        <ele>1782.421631</ele>
        <time>2009-10-29T12:53:15Z</time>
      </trkpt>
      <trkpt lat="45.34651" lon="5.88239">
        <ele>1786.266846</ele>
        <time>2009-10-29T12:53:33Z</time>
      </trkpt>
      <trkpt lat="45.34649" lon="5.88228">
        <ele>1784.824951</ele>
        <time>2009-10-29T12:53:45Z</time>
      </trkpt>
      <trkpt lat="45.34663" lon="5.88207">
        <ele>1807.416016</ele>
        <time>2009-10-29T12:54:30Z</time>
      </trkpt>
      <trkpt lat="45.34661" lon="5.88202">
        <ele>1807.416016</ele>
        <time>2009-10-29T12:54:38Z</time>
      </trkpt>
      <trkpt lat="45.34665" lon="5.88196">
        <ele>1807.416016</ele>
        <time>2009-10-29T12:54:50Z</time>
      </trkpt>
      <trkpt lat="45.34664" lon="5.88178">
        <ele>1806.935303</ele>
        <time>2009-10-29T12:55:01Z</time>
      </trkpt>
      <trkpt lat="45.3466" lon="5.88182">
        <ele>1806.45459</ele>
        <time>2009-10-29T12:55:10Z</time>
      </trkpt>
      <trkpt lat="45.34667" lon="5.88172">
        <ele>1805.973877</ele>
        <time>2009-10-29T12:55:21Z</time>
      </trkpt>
      <trkpt lat="45.34666" lon="5.88146">
        <ele>1801.167236</ele>
        <time>2009-10-29T12:55:49Z</time>
      </trkpt>
      <trkpt lat="45.34669" lon="5.88125">
        <ele>1798.283203</ele>
        <time>2009-10-29T12:56:05Z</time>
      </trkpt>
      <trkpt lat="45.34676" lon="5.88113">
        <ele>1797.802734</ele>
        <time>2009-10-29T12:56:15Z</time>
      </trkpt>
      <trkpt lat="45.34693" lon="5.88109">
        <ele>1776.173096</ele>
        <time>2009-10-29T12:56:36Z</time>
      </trkpt>
      <trkpt lat="45.34706" lon="5.88098">
        <ele>1744.930176</ele>
        <time>2009-10-29T12:56:53Z</time>
      </trkpt>
      <trkpt lat="45.34743" lon="5.88085">
        <ele>1738.681641</ele>
        <time>2009-10-29T12:57:29Z</time>
      </trkpt>
      <trkpt lat="45.3477" lon="5.88114">
        <ele>1741.084961</ele>
        <time>2009-10-29T12:57:58Z</time>
      </trkpt>
    </trkseg>
  </trk>
</gpx>